Time;durP1;ratioP1;P1;durP2;ratioP2;P2;SDS_P1;SDS_P2;PMS_P1;PMS_P2;Temp;Humidity;BMP_temperature;BMP_pressure;BME280_temperature;BME280_humidity;BME280_pressure;Samples;Min_cycle;Max_cycle;Signal;HPM_P1;HPM_P2
2022/04/13 00:01:42;;;;;;;9.53;6.70;;;7.10;99.90;;;;;;5026510;28;20234;-69
2022/04/13 00:04:08;;;;;;;10.30;6.33;;;7.10;99.90;;;;;;5026714;28;20242;-69
2022/04/13 00:06:38;;;;;;;8.37;6.13;;;7.00;99.90;;;;;;5026323;28;20318;-70
2022/04/13 00:09:09;;;;;;;10.87;6.80;;;6.90;99.90;;;;;;5025838;28;20721;-70
2022/04/13 00:11:35;;;;;;;10.03;6.83;;;6.70;99.90;;;;;;5025964;28;20210;-69
2022/04/13 00:14:02;;;;;;;9.83;6.30;;;6.70;99.90;;;;;;5026248;28;20678;-74
2022/04/13 00:16:28;;;;;;;10.90;6.93;;;6.60;99.90;;;;;;5007688;28;20186;-72
2022/04/13 00:18:54;;;;;;;9.63;6.60;;;6.60;99.90;;;;;;5025951;28;20235;-71
2022/04/13 00:21:20;;;;;;;9.93;6.87;;;6.60;99.90;;;;;;5025994;28;20557;-72
2022/04/13 00:23:46;;;;;;;9.37;6.67;;;6.60;99.90;;;;;;5025987;28;20305;-71
2022/04/13 00:26:11;;;;;;;10.57;7.17;;;6.60;99.90;;;;;;5025590;28;20183;-71
2022/04/13 00:28:37;;;;;;;10.20;6.57;;;6.60;99.90;;;;;;5025743;28;20211;-71
2022/04/13 00:31:03;;;;;;;11.03;6.97;;;6.60;99.90;;;;;;5008355;28;20215;-72
2022/04/13 00:33:29;;;;;;;10.30;6.93;;;6.50;99.90;;;;;;5025588;28;20179;-71
2022/04/13 00:35:55;;;;;;;10.93;7.70;;;6.50;99.90;;;;;;5026416;28;20191;-71
2022/04/13 00:38:22;;;;;;;10.90;7.37;;;6.50;99.90;;;;;;5006759;28;20202;-75
2022/04/13 00:40:48;;;;;;;9.70;7.00;;;6.40;99.90;;;;;;5026057;28;20526;-71
2022/04/13 00:43:15;;;;;;;10.43;7.23;;;6.40;99.90;;;;;;5025052;28;20222;-71
2022/04/13 00:45:47;;;;;;;11.87;7.53;;;6.40;99.90;;;;;;5025673;28;20745;-70
2022/04/13 00:48:26;;;;;;;10.73;7.30;;;6.40;99.90;;;;;;5024879;28;20247;-71
2022/04/13 00:50:51;;;;;;;9.73;7.20;;;6.40;99.90;;;;;;5025651;28;20194;-71
2022/04/13 00:53:19;;;;;;;11.10;7.23;;;6.40;99.90;;;;;;5025474;28;20518;-71
2022/04/13 00:55:46;;;;;;;10.03;7.00;;;6.40;99.90;;;;;;5025484;28;20878;-70
2022/04/13 00:58:15;;;;;;;12.03;7.13;;;6.30;99.90;;;;;;5024181;28;20666;-71
2022/04/13 01:00:48;;;;;;;11.07;7.13;;;6.40;99.90;;;;;;5007773;28;20190;-71
2022/04/13 01:03:19;;;;;;;10.33;7.63;;;6.40;99.90;;;;;;5007530;28;20186;-67
2022/04/13 01:05:47;;;;;;;11.17;7.03;;;6.40;99.90;;;;;;5024916;28;20620;-71
2022/04/13 01:08:13;;;;;;;10.53;7.30;;;6.40;99.90;;;;;;5024294;28;20669;-71
2022/04/13 01:10:44;;;;;;;12.53;7.53;;;6.40;99.90;;;;;;5025097;28;20191;-70
2022/04/13 01:13:11;;;;;;;11.03;7.33;;;6.40;99.90;;;;;;5024898;28;20205;-72
2022/04/13 01:15:37;;;;;;;12.30;7.70;;;6.40;99.90;;;;;;5025226;28;20214;-71
2022/04/13 01:18:03;;;;;;;12.83;7.43;;;6.40;99.90;;;;;;5006515;28;20670;-70
2022/04/13 01:20:29;;;;;;;12.53;8.10;;;6.40;99.90;;;;;;5025201;28;20278;-70
2022/04/13 01:22:55;;;;;;;11.57;7.40;;;6.30;99.90;;;;;;5007364;28;20274;-70
2022/04/13 01:25:21;;;;;;;12.70;7.60;;;6.30;99.90;;;;;;5024740;28;20690;-72
2022/04/13 01:27:47;;;;;;;10.77;7.70;;;6.30;99.90;;;;;;5023812;28;20290;-71
2022/04/13 01:30:13;;;;;;;11.53;7.90;;;6.30;99.90;;;;;;5024769;28;20605;-71
2022/04/13 01:32:39;;;;;;;14.10;8.17;;;6.30;99.90;;;;;;5024975;28;20266;-70
2022/04/13 01:35:06;;;;;;;13.60;8.23;;;6.30;99.90;;;;;;5024853;28;20282;-70
2022/04/13 01:37:32;;;;;;;11.93;7.57;;;6.30;99.90;;;;;;5023914;28;20722;-70
2022/04/13 01:39:58;;;;;;;12.13;8.30;;;6.30;99.90;;;;;;5024439;28;20313;-70
2022/04/13 01:42:23;;;;;;;12.97;7.90;;;6.30;99.90;;;;;;5007239;28;20186;-70
2022/04/13 01:44:49;;;;;;;13.93;8.43;;;6.20;99.90;;;;;;5024909;28;20288;-71
2022/04/13 01:47:14;;;;;;;11.67;8.00;;;6.20;99.90;;;;;;5024034;28;20225;-71
2022/04/13 01:49:41;;;;;;;10.90;7.00;;;6.20;99.90;;;;;;5006384;28;20211;-70
2022/04/13 01:52:08;;;;;;;10.47;7.70;;;6.20;99.90;;;;;;5024692;28;20194;-70
2022/04/13 01:54:34;;;;;;;11.87;7.40;;;6.20;99.90;;;;;;5024514;28;20900;-70
2022/04/13 01:57:00;;;;;;;12.53;8.20;;;6.20;99.90;;;;;;5024544;28;20226;-71
2022/04/13 01:59:26;;;;;;;10.50;7.30;;;6.20;99.90;;;;;;5023883;28;20210;-71
2022/04/13 02:01:52;;;;;;;12.20;7.80;;;6.20;99.90;;;;;;5024771;28;20209;-70
2022/04/13 02:04:23;;;;;;;11.17;7.80;;;6.10;99.90;;;;;;5024152;28;20272;-71
2022/04/13 02:06:50;;;;;;;12.43;8.00;;;6.20;99.90;;;;;;5006396;28;20306;-70
2022/04/13 02:09:17;;;;;;;11.67;8.03;;;6.20;99.90;;;;;;5023727;28;20206;-72
2022/04/13 02:11:43;;;;;;;11.83;8.00;;;6.20;99.90;;;;;;5024831;28;20205;-70
2022/04/13 02:14:09;;;;;;;11.33;7.40;;;6.20;99.90;;;;;;5024134;28;20198;-70
2022/04/13 02:16:35;;;;;;;11.67;7.93;;;6.20;99.90;;;;;;5006397;28;20191;-71
2022/04/13 02:19:01;;;;;;;11.73;7.70;;;6.10;99.90;;;;;;5023591;28;20252;-71
2022/04/13 02:21:27;;;;;;;14.27;8.63;;;6.20;99.90;;;;;;5024525;28;20187;-70
2022/04/13 02:23:52;;;;;;;12.00;8.23;;;6.20;99.90;;;;;;5027090;28;20562;-70
2022/04/13 02:26:19;;;;;;;11.83;8.03;;;6.20;99.90;;;;;;5027592;28;20187;-71
2022/04/13 02:28:45;;;;;;;12.70;8.07;;;6.10;99.90;;;;;;5027907;28;20210;-73
2022/04/13 02:31:11;;;;;;;14.97;8.63;;;6.10;99.90;;;;;;5028409;28;20688;-71
2022/04/13 02:33:37;;;;;;;12.53;8.30;;;6.10;99.90;;;;;;5028030;28;20190;-70
2022/04/13 02:36:02;;;;;;;12.43;8.37;;;6.10;99.90;;;;;;5028294;28;20187;-70
2022/04/13 02:38:28;;;;;;;12.00;8.00;;;6.10;99.90;;;;;;5026621;28;20202;-73
2022/04/13 02:40:54;;;;;;;11.97;7.73;;;6.00;99.90;;;;;;5010520;28;20768;-71
2022/04/13 02:43:19;;;;;;;13.20;7.80;;;6.00;99.90;;;;;;5027608;28;20599;-71
2022/04/13 02:45:45;;;;;;;11.63;7.70;;;6.10;99.90;;;;;;5027753;28;20681;-71
2022/04/13 02:48:10;;;;;;;12.97;8.83;;;6.10;99.90;;;;;;5009173;28;20187;-71
2022/04/13 02:50:37;;;;;;;15.13;9.13;;;6.10;99.90;;;;;;5027965;28;20245;-71
2022/04/13 02:53:03;;;;;;;11.83;8.30;;;6.00;99.90;;;;;;5027836;28;20751;-70
2022/04/13 02:55:29;;;;;;;14.13;8.90;;;6.10;99.90;;;;;;5027840;28;20650;-70
2022/04/13 02:57:55;;;;;;;13.63;9.30;;;6.00;99.90;;;;;;5026847;28;20215;-71
2022/04/13 03:00:20;;;;;;;13.47;8.33;;;5.90;99.90;;;;;;5027829;28;20233;-70
2022/04/13 03:02:46;;;;;;;12.03;8.00;;;5.90;99.90;;;;;;5027665;28;20191;-69
2022/04/13 03:05:12;;;;;;;13.27;8.60;;;5.80;99.90;;;;;;5027249;28;20234;-72
2022/04/13 03:07:37;;;;;;;12.70;8.30;;;5.80;99.90;;;;;;5026670;28;20614;-70
2022/04/13 03:10:04;;;;;;;11.80;8.50;;;5.70;99.90;;;;;;5027415;28;20222;-70
2022/04/13 03:12:32;;;;;;;13.50;8.63;;;5.80;99.90;;;;;;5027917;28;20185;-70
2022/04/13 03:14:57;;;;;;;13.67;8.40;;;5.70;99.90;;;;;;5027329;28;20198;-70
2022/04/13 03:17:23;;;;;;;12.83;8.27;;;5.70;99.90;;;;;;5026728;28;20830;-72
2022/04/13 03:19:49;;;;;;;12.57;8.37;;;5.70;99.90;;;;;;5009142;28;20217;-71
2022/04/13 03:22:15;;;;;;;13.17;8.50;;;5.70;99.90;;;;;;5026830;28;20186;-72
2022/04/13 03:24:40;;;;;;;13.50;8.73;;;5.70;99.90;;;;;;5027173;28;20210;-69
2022/04/13 03:27:06;;;;;;;12.53;8.50;;;5.70;99.90;;;;;;5026634;28;20183;-70
2022/04/13 03:29:32;;;;;;;14.87;9.00;;;5.60;99.90;;;;;;5027120;28;20209;-71
2022/04/13 03:31:58;;;;;;;13.67;8.33;;;5.70;99.90;;;;;;5027237;28;20265;-70
2022/04/13 03:34:23;;;;;;;12.77;8.10;;;5.70;99.90;;;;;;5025367;28;20179;-73
2022/04/13 03:36:50;;;;;;;14.77;8.50;;;5.70;99.90;;;;;;5024921;28;20197;-72
2022/04/13 03:39:16;;;;;;;12.93;8.43;;;5.70;99.90;;;;;;5026474;28;20218;-71
2022/04/13 03:41:42;;;;;;;13.33;8.17;;;5.60;99.90;;;;;;5026477;28;20259;-70
2022/04/13 03:44:08;;;;;;;13.33;8.57;;;5.60;99.90;;;;;;5027105;28;21081;-71
2022/04/13 03:46:34;;;;;;;14.63;8.73;;;5.60;99.90;;;;;;5026569;28;20190;-71
2022/04/13 03:48:59;;;;;;;12.93;8.67;;;5.50;99.90;;;;;;5026263;28;20210;-70
2022/04/13 03:51:26;;;;;;;14.47;8.70;;;5.50;99.90;;;;;;5027141;28;20796;-71
2022/04/13 03:53:52;;;;;;;15.37;9.57;;;5.50;99.90;;;;;;5026364;28;20580;-72
2022/04/13 03:56:17;;;;;;;14.40;9.23;;;5.50;99.90;;;;;;5026497;28;20186;-71
2022/04/13 03:58:43;;;;;;;15.83;9.93;;;5.40;99.90;;;;;;5026640;28;20202;-70
2022/04/13 04:01:10;;;;;;;13.57;9.03;;;5.50;99.90;;;;;;5027002;28;20209;-71
2022/04/13 04:03:36;;;;;;;15.53;9.60;;;5.40;99.90;;;;;;5025575;28;20186;-72
2022/04/13 04:06:03;;;;;;;15.03;9.20;;;5.50;99.90;;;;;;5025441;28;20214;-71
2022/04/13 04:08:29;;;;;;;14.27;9.07;;;5.40;99.90;;;;;;5025027;28;20202;-70
2022/04/13 04:10:55;;;;;;;14.33;8.97;;;5.40;99.90;;;;;;5008671;28;20206;-70
2022/04/13 04:13:21;;;;;;;15.07;9.20;;;5.40;99.90;;;;;;5025851;28;20761;-70
2022/04/13 04:15:47;;;;;;;13.33;8.90;;;5.40;99.90;;;;;;5026167;28;20183;-70
2022/04/13 04:18:13;;;;;;;14.57;9.70;;;5.40;99.90;;;;;;5025010;28;20206;-72
2022/04/13 04:20:38;;;;;;;14.90;9.10;;;5.40;99.90;;;;;;5008881;28;20246;-70
2022/04/13 04:23:04;;;;;;;15.03;9.07;;;5.30;99.90;;;;;;5008651;28;20244;-70
2022/04/13 04:25:31;;;;;;;13.17;9.10;;;5.30;99.90;;;;;;5008305;28;20202;-70
2022/04/13 04:27:56;;;;;;;15.20;9.27;;;5.30;99.90;;;;;;5007691;28;20179;-70
2022/04/13 04:30:22;;;;;;;13.57;9.00;;;5.30;99.90;;;;;;5025746;28;20185;-71
2022/04/13 04:32:48;;;;;;;13.93;8.87;;;5.40;99.90;;;;;;5026144;28;20650;-70
2022/04/13 04:35:13;;;;;;;14.53;9.50;;;5.30;99.90;;;;;;5024697;28;20695;-70
2022/04/13 04:37:39;;;;;;;17.53;9.50;;;5.30;99.90;;;;;;5024769;28;20224;-72
2022/04/13 04:40:06;;;;;;;14.87;9.50;;;5.30;99.90;;;;;;5007350;28;20592;-70
2022/04/13 04:42:43;;;;;;;12.50;8.47;;;5.20;99.90;;;;;;5025699;28;20179;-70
2022/04/13 04:45:08;;;;;;;13.37;8.80;;;5.30;99.90;;;;;;5024052;28;20202;-69
2022/04/13 04:47:34;;;;;;;12.40;8.87;;;5.30;99.90;;;;;;5021265;28;20682;-70
2022/04/13 04:50:00;;;;;;;13.73;9.00;;;5.30;99.90;;;;;;5004472;28;20298;-71
2022/04/13 04:52:25;;;;;;;12.47;8.93;;;5.30;99.90;;;;;;5021238;28;20183;-70
2022/04/13 04:54:51;;;;;;;15.13;9.00;;;5.40;99.90;;;;;;5023716;28;20194;-70
2022/04/13 04:57:16;;;;;;;12.03;8.83;;;5.50;99.90;;;;;;5005588;28;20399;-70
2022/04/13 04:59:42;;;;;;;13.27;8.97;;;5.50;99.90;;;;;;5024635;28;20662;-70
2022/04/13 05:02:08;;;;;;;14.47;9.33;;;5.60;99.90;;;;;;5024249;28;20283;-69
2022/04/13 05:04:33;;;;;;;14.97;9.70;;;5.60;99.90;;;;;;5024900;28;20222;-69
2022/04/13 05:06:59;;;;;;;12.47;8.63;;;5.70;99.90;;;;;;5005564;28;20187;-70
2022/04/13 05:09:25;;;;;;;14.33;8.87;;;5.70;99.90;;;;;;5024304;28;20210;-70
2022/04/13 05:11:51;;;;;;;13.97;8.90;;;5.80;99.90;;;;;;5023971;28;20244;-68
2022/04/13 05:14:18;;;;;;;16.50;10.17;;;6.00;99.90;;;;;;5023157;28;20187;-72
2022/04/13 05:16:44;;;;;;;12.77;8.97;;;6.00;99.90;;;;;;5023277;28;20527;-69
2022/04/13 05:19:10;;;;;;;14.50;9.03;;;6.10;99.90;;;;;;5023785;28;20211;-70
2022/04/13 05:21:35;;;;;;;14.00;9.03;;;6.10;99.90;;;;;;5024496;28;20190;-69
2022/04/13 05:24:01;;;;;;;12.80;8.77;;;6.30;99.90;;;;;;5024456;28;20662;-70
2022/04/13 05:26:26;;;;;;;15.97;9.73;;;6.30;99.90;;;;;;5023729;28;20201;-72
2022/04/13 05:28:52;;;;;;;12.27;8.57;;;6.50;99.90;;;;;;5024180;28;20205;-69
2022/04/13 05:31:18;;;;;;;13.40;9.10;;;6.70;99.90;;;;;;5024621;28;20274;-70
2022/04/13 05:33:43;;;;;;;11.70;9.07;;;6.70;99.90;;;;;;5024507;28;20195;-69
2022/04/13 05:36:09;;;;;;;15.67;9.90;;;6.80;99.90;;;;;;5022852;28;20203;-71
2022/04/13 05:38:35;;;;;;;13.13;9.33;;;6.80;99.90;;;;;;5022706;28;20219;-69
2022/04/13 05:41:01;;;;;;;12.27;8.77;;;7.00;99.90;;;;;;5023192;28;20197;-69
2022/04/13 05:43:30;;;;;;;12.67;8.80;;;7.20;99.90;;;;;;5023748;28;20191;-70
2022/04/13 05:45:56;;;;;;;14.97;9.40;;;7.40;99.90;;;;;;5006292;28;20213;-69
2022/04/13 05:48:21;;;;;;;15.97;9.30;;;7.50;99.90;;;;;;5023092;28;20211;-69
2022/04/13 05:50:47;;;;;;;12.97;8.93;;;7.80;99.90;;;;;;5006372;28;20186;-70
2022/04/13 05:53:12;;;;;;;13.50;9.60;;;7.90;99.90;;;;;;5023414;28;20569;-69
2022/04/13 05:55:38;;;;;;;13.77;9.50;;;8.10;99.90;;;;;;5024314;28;20222;-70
2022/04/13 05:58:04;;;;;;;12.93;9.20;;;8.30;99.90;;;;;;5022763;28;20198;-69
2022/04/13 06:00:29;;;;;;;13.50;9.87;;;8.40;99.90;;;;;;5023907;28;20191;-70
2022/04/13 06:02:55;;;;;;;13.83;10.03;;;8.40;99.90;;;;;;5023951;28;20197;-71
2022/04/13 06:05:22;;;;;;;12.93;9.63;;;8.40;99.90;;;;;;5023905;28;20214;-69
2022/04/13 06:07:48;;;;;;;12.40;8.67;;;8.40;99.90;;;;;;5023215;28;20186;-69
2022/04/13 06:10:15;;;;;;;13.17;9.63;;;8.40;99.90;;;;;;5023672;28;20632;-71
2022/04/13 06:12:40;;;;;;;12.33;9.07;;;8.50;99.90;;;;;;5024037;28;20266;-69
2022/04/13 06:15:08;;;;;;;16.67;9.70;;;8.70;99.90;;;;;;5024544;28;20286;-70
2022/04/13 06:17:34;;;;;;;14.50;10.03;;;8.90;99.90;;;;;;5023006;28;20638;-70
2022/04/13 06:20:00;;;;;;;12.60;9.63;;;9.10;99.90;;;;;;5024348;28;20224;-71
2022/04/13 06:22:26;;;;;;;15.20;10.30;;;9.10;99.90;;;;;;5024291;28;20642;-71
2022/04/13 06:24:52;;;;;;;13.43;9.93;;;9.00;99.90;;;;;;5024277;28;20217;-69
2022/04/13 06:27:19;;;;;;;14.47;10.40;;;9.30;99.90;;;;;;5005667;28;20183;-70
2022/04/13 06:29:45;;;;;;;14.17;9.80;;;9.30;99.90;;;;;;5023793;28;20211;-73
2022/04/13 06:32:11;;;;;;;13.60;9.37;;;9.40;99.90;;;;;;5024449;28;20217;-70
2022/04/13 06:34:38;;;;;;;13.03;9.20;;;9.60;99.90;;;;;;5023953;28;20673;-70
2022/04/13 06:37:04;;;;;;;12.87;9.73;;;9.70;99.90;;;;;;5023724;28;20179;-73
2022/04/13 06:39:29;;;;;;;14.23;9.30;;;9.50;99.90;;;;;;5023492;28;20707;-71
2022/04/13 06:41:55;;;;;;;14.83;10.10;;;9.40;99.90;;;;;;5023070;28;20200;-72
2022/04/13 06:44:21;;;;;;;14.33;9.43;;;9.40;99.90;;;;;;5022757;28;20215;-69
2022/04/13 06:46:47;;;;;;;14.67;9.67;;;9.50;99.90;;;;;;5022716;28;20191;-73
2022/04/13 06:49:12;;;;;;;15.13;9.80;;;9.50;99.90;;;;;;5017566;28;20654;-69
2022/04/13 06:51:38;;;;;;;14.17;9.80;;;9.70;99.90;;;;;;5019561;28;20195;-69
2022/04/13 06:54:04;;;;;;;13.03;9.03;;;9.70;99.90;;;;;;5021760;28;20658;-69
2022/04/13 06:56:32;;;;;;;16.23;10.90;;;9.80;99.90;;;;;;5021464;28;20190;-71
2022/04/13 06:58:58;;;;;;;15.63;10.37;;;10.00;99.90;;;;;;5003109;28;20218;-69
2022/04/13 07:01:24;;;;;;;16.73;10.40;;;10.20;99.90;;;;;;5004480;28;20278;-69
2022/04/13 07:03:49;;;;;;;13.37;9.47;;;10.30;99.90;;;;;;5004076;28;20191;-71
2022/04/13 07:06:15;;;;;;;13.73;9.83;;;10.50;99.90;;;;;;5022372;28;20217;-70
2022/04/13 07:08:41;;;;;;;14.83;9.43;;;10.80;99.90;;;;;;5022995;28;20707;-70
2022/04/13 07:11:06;;;;;;;12.33;9.00;;;11.00;99.90;;;;;;5025310;28;20190;-69
2022/04/13 07:13:32;;;;;;;13.37;9.27;;;11.30;99.90;;;;;;5026075;28;20552;-69
2022/04/13 07:15:58;;;;;;;14.00;9.80;;;11.70;99.90;;;;;;5026649;28;20187;-70
2022/04/13 07:18:25;;;;;;;15.30;9.95;;;11.90;99.90;;;;;;5026251;28;20280;-70
2022/04/13 07:20:51;;;;;;;12.50;10.02;;;12.10;99.90;;;;;;5026708;28;20659;-70
2022/04/13 07:23:18;;;;;;;13.18;9.35;;;12.30;99.90;;;;;;5026493;28;20286;-70
2022/04/13 07:25:44;;;;;;;12.90;9.60;;;12.30;99.90;;;;;;5025454;28;20207;-70
2022/04/13 07:28:10;;;;;;;13.32;9.85;;;12.50;99.90;;;;;;5024983;28;20186;-69
2022/04/13 07:30:35;;;;;;;12.40;9.15;;;12.70;99.90;;;;;;5006255;28;20191;-69
2022/04/13 07:33:02;;;;;;;11.32;9.65;;;13.00;99.90;;;;;;5024826;28;20612;-70
2022/04/13 07:35:29;;;;;;;13.45;9.65;;;13.30;99.90;;;;;;5023697;28;20658;-70
2022/04/13 07:37:55;;;;;;;16.23;10.38;;;13.50;99.90;;;;;;5021992;28;20202;-69
2022/04/13 07:40:21;;;;;;;13.63;9.93;;;13.90;99.90;;;;;;5023467;28;20286;-69
2022/04/13 07:42:47;;;;;;;12.55;9.57;;;13.90;99.90;;;;;;5022245;28;20182;-73
2022/04/13 07:45:13;;;;;;;13.32;9.40;;;13.90;99.90;;;;;;5023226;28;20698;-69
2022/04/13 07:47:39;;;;;;;13.77;10.05;;;13.60;99.90;;;;;;5021573;28;20202;-70
2022/04/13 07:50:13;;;;;;;13.07;9.88;;;13.20;99.90;;;;;;5023866;28;20584;-70
2022/04/13 07:52:40;;;;;;;13.52;9.68;;;13.10;99.90;;;;;;5021997;28;20278;-70
2022/04/13 07:55:07;;;;;;;11.38;9.05;;;13.20;99.90;;;;;;5021009;28;20230;-72
2022/04/13 07:57:33;;;;;;;12.57;9.13;;;13.40;99.90;;;;;;5020188;28;20603;-69
2022/04/13 07:59:59;;;;;;;11.40;9.00;;;13.50;99.90;;;;;;5020961;28;20294;-70
2022/04/13 08:02:24;;;;;;;13.20;10.68;;;13.40;99.90;;;;;;5005900;28;20646;-70
2022/04/13 08:04:50;;;;;;;12.75;9.90;;;13.40;99.90;;;;;;5005541;28;20210;-71
2022/04/13 08:07:16;;;;;;;12.88;10.77;;;13.30;99.90;;;;;;5022825;28;20190;-71
2022/04/13 08:09:42;;;;;;;13.70;11.02;;;13.30;99.90;;;;;;5023199;28;20286;-69
2022/04/13 08:12:08;;;;;;;13.35;10.30;;;13.50;99.90;;;;;;5023154;28;20179;-70
2022/04/13 08:14:33;;;;;;;16.42;10.73;;;13.90;99.90;;;;;;5022449;28;20297;-69
2022/04/13 08:17:03;;;;;;;13.02;10.30;;;14.00;99.90;;;;;;5022463;28;20711;-69
2022/04/13 08:19:30;;;;;;;14.98;10.15;;;14.00;99.90;;;;;;5021621;28;20203;-70
2022/04/13 08:21:55;;;;;;;12.05;10.68;;;14.20;99.90;;;;;;5004020;28;20218;-69
2022/04/13 08:24:21;;;;;;;13.80;10.93;;;14.50;99.90;;;;;;5021789;28;20337;-69
2022/04/13 08:26:46;;;;;;;13.02;10.02;;;14.20;99.90;;;;;;5021381;28;20575;-69
2022/04/13 08:29:12;;;;;;;13.02;10.93;;;14.10;99.90;;;;;;5021316;28;20208;-70
2022/04/13 08:31:38;;;;;;;13.82;10.45;;;13.90;99.90;;;;;;5023194;28;20229;-70
2022/04/13 08:34:04;;;;;;;14.82;10.45;;;14.10;99.90;;;;;;5022711;28;20183;-70
2022/04/13 08:36:29;;;;;;;14.93;10.80;;;14.30;99.90;;;;;;5004365;28;20218;-70
2022/04/13 08:38:55;;;;;;;12.15;10.68;;;14.40;99.90;;;;;;5022192;28;20272;-70
2022/04/13 08:42:00;;;;;;;14.20;11.20;;;14.40;99.90;;;;;;5016482;28;20337;-70
2022/04/13 08:44:41;;;;;;;14.30;10.63;;;14.40;99.90;;;;;;4988062;28;20218;-69
2022/04/13 08:47:21;;;;;;;12.65;10.60;;;14.70;99.90;;;;;;5017283;28;20179;-71
2022/04/13 08:49:49;;;;;;;15.93;10.98;;;14.80;99.90;;;;;;5019762;28;20214;-70
2022/04/13 08:52:19;;;;;;;13.48;10.63;;;14.90;99.90;;;;;;5021577;28;20646;-70
2022/04/13 08:55:04;;;;;;;12.95;9.85;;;15.20;99.90;;;;;;5021658;28;20229;-69
2022/04/13 08:57:34;;;;;;;12.57;10.25;;;15.40;99.90;;;;;;5020244;28;20183;-70
2022/04/13 09:00:09;;;;;;;13.82;11.52;;;15.90;99.90;;;;;;5015738;28;20759;-70
2022/04/13 09:03:09;;;;;;;12.57;11.27;;;16.20;99.90;;;;;;5002731;28;20198;-70
2022/04/13 09:05:36;;;;;;;13.60;11.82;;;16.20;99.90;;;;;;5019649;28;20302;-71
2022/04/13 09:08:12;;;;;;;14.68;11.38;;;16.30;99.90;;;;;;5020063;28;20274;-70
2022/04/13 09:10:39;;;;;;;16.00;11.18;;;16.50;99.90;;;;;;5021817;28;20245;-72
2022/04/13 09:13:09;;;;;;;13.38;11.25;;;16.70;99.90;;;;;;5024290;28;20257;-71
2022/04/13 09:15:38;;;;;;;13.48;11.55;;;16.90;99.90;;;;;;5005587;28;21306;-70
2022/04/13 09:18:04;;;;;;;13.52;11.90;;;17.00;99.90;;;;;;5020965;28;20210;-70
2022/04/13 09:20:30;;;;;;;13.40;12.00;;;17.30;99.90;;;;;;5021040;28;20187;-71
2022/04/13 09:22:59;;;;;;;14.20;12.02;;;17.30;99.90;;;;;;5018911;28;20202;-71
2022/04/13 09:25:27;;;;;;;13.95;11.95;;;17.40;99.90;;;;;;5023745;28;20221;-72
2022/04/13 09:27:53;;;;;;;13.80;11.77;;;17.70;99.90;;;;;;5020838;28;20214;-72
2022/04/13 09:30:19;;;;;;;12.88;11.35;;;17.90;99.90;;;;;;5024590;28;20201;-71
2022/04/13 09:32:45;;;;;;;12.80;11.38;;;17.90;99.90;;;;;;5023924;28;21338;-71
2022/04/13 09:35:11;;;;;;;13.75;12.18;;;17.80;99.90;;;;;;5024568;28;20535;-71
2022/04/13 09:37:37;;;;;;;13.80;11.52;;;18.00;99.90;;;;;;5023673;28;20237;-72
2022/04/13 09:40:02;;;;;;;12.02;10.50;;;18.20;99.90;;;;;;5024852;28;20251;-71
2022/04/13 09:42:28;;;;;;;12.55;10.90;;;18.40;99.90;;;;;;5024780;28;20524;-71
2022/04/13 09:44:58;;;;;;;15.25;11.85;;;18.30;99.90;;;;;;5024803;28;20296;-70
2022/04/13 09:47:31;;;;;;;14.20;10.95;;;18.40;99.90;;;;;;5022893;28;20205;-71
2022/04/13 09:49:57;;;;;;;16.30;12.27;;;18.50;99.90;;;;;;5024091;28;20203;-72
2022/04/13 09:52:43;;;;;;;15.73;12.63;;;18.60;99.90;;;;;;5024523;28;20740;-70
2022/04/13 09:55:09;;;;;;;16.17;11.43;;;18.70;99.90;;;;;;5023950;28;20187;-71
2022/04/13 09:57:35;;;;;;;12.32;10.82;;;18.70;99.90;;;;;;5023893;28;20201;-72
2022/04/13 10:00:05;;;;;;;13.45;11.30;;;18.90;99.90;;;;;;5024196;28;20281;-71
2022/04/13 10:02:37;;;;;;;11.75;10.55;;;19.10;99.90;;;;;;5023501;28;20191;-71
2022/04/13 10:05:04;;;;;;;13.02;10.98;;;19.20;99.90;;;;;;5024074;28;20678;-72
2022/04/13 10:07:30;;;;;;;13.38;11.45;;;19.40;99.90;;;;;;5023212;28;20306;-73
2022/04/13 10:09:55;;;;;;;12.65;10.80;;;19.50;99.90;;;;;;5024382;28;20281;-72
2022/04/13 10:12:21;;;;;;;11.98;10.40;;;19.50;99.90;;;;;;5023176;28;20203;-71
2022/04/13 10:14:47;;;;;;;13.02;11.13;;;19.80;99.90;;;;;;5023874;28;20182;-72
2022/04/13 10:17:15;;;;;;;13.85;10.32;;;19.90;99.90;;;;;;5023368;28;20587;-73
2022/04/13 10:19:42;;;;;;;14.50;10.23;;;20.10;99.90;;;;;;5024299;28;20249;-72
2022/04/13 10:22:08;;;;;;;13.93;10.63;;;20.20;99.90;;;;;;5023499;28;20187;-71
2022/04/13 10:24:35;;;;;;;11.60;8.65;;;20.30;99.90;;;;;;5024296;28;20879;-71
2022/04/13 10:27:10;;;;;;;9.90;8.30;;;20.20;98.70;;;;;;5006013;28;20270;-72
2022/04/13 10:29:41;;;;;;;9.73;8.50;;;20.60;96.80;;;;;;5024594;28;20712;-72
2022/04/13 10:32:18;;;;;;;10.38;8.50;;;20.60;94.40;;;;;;5024959;28;20210;-72
2022/04/13 10:34:46;;;;;;;10.50;8.13;;;20.80;94.80;;;;;;5025674;28;20324;-72
2022/04/13 10:37:14;;;;;;;10.93;7.85;;;20.80;94.20;;;;;;5023240;28;20190;-73
2022/04/13 10:39:44;;;;;;;9.93;7.97;;;21.00;93.30;;;;;;5023831;28;20240;-73
2022/04/13 10:42:11;;;;;;;11.23;8.23;;;21.20;91.40;;;;;;5024017;28;20715;-72
2022/04/13 10:44:48;;;;;;;10.82;7.70;;;21.30;91.30;;;;;;5007768;28;20580;-73
2022/04/13 10:47:18;;;;;;;10.80;8.13;;;21.40;91.10;;;;;;5026893;28;20214;-72
2022/04/13 10:49:56;;;;;;;12.35;8.48;;;21.40;90.80;;;;;;5027368;28;20218;-72
2022/04/13 10:52:47;;;;;;;11.15;8.63;;;21.40;90.40;;;;;;5027613;28;20174;-72
2022/04/13 10:55:14;;;;;;;10.25;8.32;;;21.40;90.50;;;;;;5027448;28;20190;-73
2022/04/13 10:57:47;;;;;;;12.60;8.65;;;21.30;90.00;;;;;;5025981;28;20293;-72
2022/04/13 11:00:16;;;;;;;10.05;8.30;;;21.20;90.70;;;;;;5027387;28;20194;-71
2022/04/13 11:02:42;;;;;;;9.80;8.35;;;21.40;89.20;;;;;;5027298;28;20189;-71
2022/04/13 11:05:08;;;;;;;11.10;8.77;;;21.20;87.10;;;;;;5027576;28;20207;-72
2022/04/13 11:07:36;;;;;;;9.13;8.13;;;21.10;89.50;;;;;;5026990;28;20190;-70
2022/04/13 11:10:04;;;;;;;10.20;8.35;;;21.40;89.30;;;;;;5027503;28;20227;-69
2022/04/13 11:12:31;;;;;;;11.75;8.07;;;21.50;90.20;;;;;;5027655;28;20250;-69
2022/04/13 11:15:02;;;;;;;11.77;8.55;;;21.70;87.80;;;;;;5027213;28;20201;-68
2022/04/13 11:17:28;;;;;;;9.27;7.50;;;21.50;87.70;;;;;;5009166;28;20183;-68
2022/04/13 11:20:15;;;;;;;9.52;8.15;;;21.60;88.00;;;;;;5027625;28;20203;-67
2022/04/13 11:22:41;;;;;;;11.15;9.05;;;21.50;85.60;;;;;;5027554;28;20213;-68
2022/04/13 11:25:07;;;;;;;12.23;8.02;;;21.50;85.80;;;;;;5027144;28;20203;-68
2022/04/13 11:27:54;;;;;;;12.15;8.93;;;21.80;87.00;;;;;;5026102;28;20175;-68
2022/04/13 11:30:20;;;;;;;10.00;7.82;;;22.10;87.20;;;;;;5025855;28;20187;-69
2022/04/13 11:32:46;;;;;;;10.75;8.63;;;22.40;83.80;;;;;;5026628;28;20561;-70
2022/04/13 11:35:26;;;;;;;10.40;7.28;;;22.40;81.80;;;;;;5027015;28;20263;-69
2022/04/13 11:38:06;;;;;;;10.93;8.63;;;22.40;82.50;;;;;;5026339;28;20625;-71
2022/04/13 11:40:32;;;;;;;10.98;8.20;;;22.60;82.20;;;;;;5026375;28;20198;-69
2022/04/13 11:43:03;;;;;;;9.65;8.52;;;22.30;83.70;;;;;;5026948;28;20194;-69
2022/04/13 11:45:30;;;;;;;13.93;9.68;;;22.40;84.80;;;;;;5026716;28;20206;-68
2022/04/13 11:47:58;;;;;;;10.98;9.23;;;22.40;81.50;;;;;;5025339;28;20269;-69
2022/04/13 11:50:32;;;;;;;12.82;8.70;;;22.20;81.90;;;;;;5026072;28;20190;-67
2022/04/13 11:53:10;;;;;;;10.40;8.00;;;22.30;82.40;;;;;;5008677;28;20183;-69
2022/04/13 11:55:45;;;;;;;10.75;8.52;;;22.30;81.80;;;;;;5025979;28;20186;-69
2022/04/13 11:58:12;;;;;;;10.25;7.88;;;22.50;81.90;;;;;;5026316;28;20242;-69
2022/04/13 12:00:55;;;;;;;10.48;7.47;;;22.40;80.70;;;;;;5026770;28;20688;-69
2022/04/13 12:03:25;;;;;;;10.65;8.40;;;22.20;79.80;;;;;;5026337;28;20191;-68
2022/04/13 12:05:54;;;;;;;10.32;7.28;;;22.20;80.90;;;;;;5026949;28;20210;-69
2022/04/13 12:08:38;;;;;;;10.15;8.45;;;22.40;80.10;;;;;;5025042;28;20202;-69
2022/04/13 12:11:08;;;;;;;11.57;8.70;;;22.30;81.90;;;;;;5008218;28;20241;-68
2022/04/13 12:13:56;;;;;;;10.00;8.57;;;22.30;81.50;;;;;;5026206;28;20185;-69
2022/04/13 12:16:25;;;;;;;12.38;8.25;;;22.40;81.90;;;;;;5007154;28;20178;-69
2022/04/13 12:18:52;;;;;;;9.25;7.45;;;22.50;82.30;;;;;;5024500;28;20210;-71
2022/04/13 12:21:21;;;;;;;12.18;8.90;;;22.70;82.40;;;;;;5024340;28;20214;-68
2022/04/13 12:23:49;;;;;;;11.20;7.57;;;22.90;81.40;;;;;;5024701;28;20222;-67
2022/04/13 12:26:15;;;;;;;10.25;7.80;;;22.90;78.50;;;;;;5024146;28;20206;-70
2022/04/13 12:28:41;;;;;;;11.27;7.50;;;22.80;78.00;;;;;;5025428;28;20261;-68
2022/04/13 12:31:10;;;;;;;10.45;7.53;;;22.70;78.00;;;;;;5026130;28;20179;-68
2022/04/13 12:33:38;;;;;;;9.98;7.95;;;23.00;79.40;;;;;;5026039;28;20240;-68
2022/04/13 12:36:16;;;;;;;12.18;7.70;;;23.00;77.10;;;;;;5025665;28;20197;-68
2022/04/13 12:38:47;;;;;;;12.20;7.75;;;22.80;77.00;;;;;;5025434;28;20211;-70
2022/04/13 12:41:18;;;;;;;11.05;8.20;;;23.00;76.20;;;;;;5025265;28;20198;-69
2022/04/13 12:43:49;;;;;;;10.60;7.68;;;23.10;77.40;;;;;;5025657;28;20190;-70